Time;durP1;ratioP1;P1;durP2;ratioP2;P2;SDS_P1;SDS_P2;PMS_P1;PMS_P2;Temp;Humidity;BMP_temperature;BMP_pressure;BME280_temperature;BME280_humidity;BME280_pressure;Samples;Min_cycle;Max_cycle;Signal;HPM_P1;HPM_P2
2021/01/15 00:01:21;;;;;;;13.60;6.60;;;;;;;-3.81;70.25;99460.16;1710471;83;21748;-42
2021/01/15 00:03:49;;;;;;;19.40;9.47;;;;;;;-3.77;70.32;99462.69;1719495;82;21186;-45
2021/01/15 00:06:21;;;;;;;12.20;7.13;;;;;;;-3.70;70.12;99467.37;1710618;81;21161;-44
2021/01/15 00:08:49;;;;;;;12.23;7.40;;;;;;;-3.64;69.95;99479.44;1734498;81;21593;-43
2021/01/15 00:11:21;;;;;;;12.63;7.77;;;;;;;-3.63;68.93;99478.53;1712583;82;21529;-44
2021/01/15 00:13:49;;;;;;;13.17;7.30;;;;;;;-3.67;69.21;99479.04;1708498;82;21647;-44
2021/01/15 00:16:24;;;;;;;13.63;8.20;;;;;;;-3.66;69.37;99476.84;1706550;82;21604;-42
2021/01/15 00:18:55;;;;;;;16.17;10.70;;;;;;;-3.59;69.14;99483.67;1705047;82;21185;-42
2021/01/15 00:21:31;;;;;;;13.88;8.20;;;;;;;-3.51;69.07;99486.16;1705244;82;21141;-45
2021/01/15 00:24:00;;;;;;;15.47;9.50;;;;;;;-3.50;69.08;99482.23;1711580;82;21165;-46
2021/01/15 00:26:29;;;;;;;15.20;7.97;;;;;;;-3.46;68.92;99485.63;1715644;82;21177;-45
2021/01/15 00:28:57;;;;;;;15.20;9.17;;;;;;;-3.45;68.78;99485.18;1712545;82;21580;-45
2021/01/15 00:31:38;;;;;;;15.47;9.37;;;;;;;-3.45;68.77;99486.48;1696443;81;21201;-44
2021/01/15 00:34:09;;;;;;;11.23;7.40;;;;;;;-3.44;68.74;99488.23;1719204;82;21598;-43
2021/01/15 00:36:38;;;;;;;14.13;9.00;;;;;;;-3.43;68.90;99493.39;1727800;81;21177;-44
2021/01/15 00:39:08;;;;;;;15.20;8.93;;;;;;;-3.35;68.75;99486.32;1701317;82;21168;-45
2021/01/15 00:41:38;;;;;;;16.43;10.13;;;;;;;-3.29;68.76;99484.89;1704564;81;21178;-44
2021/01/15 00:44:06;;;;;;;16.27;9.85;;;;;;;-3.23;68.76;99489.13;1709373;82;21176;-43
2021/01/15 00:46:34;;;;;;;19.73;9.73;;;;;;;-3.20;68.70;99481.28;1742626;81;21189;-43
2021/01/15 00:49:07;;;;;;;14.38;8.05;;;;;;;-3.17;68.54;99482.52;1736396;81;21592;-45
2021/01/15 00:51:35;;;;;;;18.77;11.35;;;;;;;-3.16;68.50;99473.80;1698955;82;21145;-45
2021/01/15 00:54:06;;;;;;;16.67;9.57;;;;;;;-3.13;67.95;99476.34;1710952;83;21193;-50
2021/01/15 00:56:35;;;;;;;13.10;7.77;;;;;;;-3.13;67.98;99482.00;1718404;81;21167;-45
2021/01/15 00:59:04;;;;;;;15.37;8.50;;;;;;;-3.12;67.75;99476.77;1743620;81;21177;-45
2021/01/15 01:01:37;;;;;;;16.43;9.43;;;;;;;-3.16;67.72;99473.80;1707170;81;21704;-47
2021/01/15 01:04:06;;;;;;;16.53;9.00;;;;;;;-3.18;67.84;99477.32;1702994;82;21830;-43
2021/01/15 01:06:33;;;;;;;15.10;9.73;;;;;;;-3.21;67.77;99480.84;1740241;81;21666;-44
2021/01/15 01:09:02;;;;;;;13.73;8.83;;;;;;;-3.29;67.68;99480.13;1738607;81;21617;-44
2021/01/15 01:11:31;;;;;;;16.53;9.47;;;;;;;-3.37;67.86;99491.15;1729287;81;21153;-43
2021/01/15 01:13:59;;;;;;;14.57;8.27;;;;;;;-3.43;68.13;99496.45;1704043;83;21161;-42
2021/01/15 01:16:27;;;;;;;14.67;8.73;;;;;;;-3.45;68.24;99496.50;1704870;82;21152;-46
2021/01/15 01:18:55;;;;;;;17.23;8.57;;;;;;;-3.46;68.52;99497.81;1725831;81;21201;-45
2021/01/15 01:21:22;;;;;;;17.30;9.43;;;;;;;-3.41;68.44;99497.30;1715758;81;21136;-43
2021/01/15 01:23:51;;;;;;;16.50;9.67;;;;;;;-3.35;68.52;99501.08;1715308;81;21161;-44
2021/01/15 01:26:19;;;;;;;14.77;9.67;;;;;;;-3.34;68.29;99502.83;1724515;81;21148;-42
2021/01/15 01:28:46;;;;;;;16.50;9.97;;;;;;;-3.33;68.42;99497.56;1740318;81;21118;-42
2021/01/15 01:31:15;;;;;;;19.43;9.90;;;;;;;-3.29;68.46;99495.78;1719926;81;21625;-44
2021/01/15 01:33:42;;;;;;;15.53;9.57;;;;;;;-3.26;68.61;99495.27;1733001;81;21161;-41
2021/01/15 01:36:12;;;;;;;14.33;8.10;;;;;;;-3.18;68.79;99496.43;1729091;81;21137;-43
2021/01/15 01:38:39;;;;;;;16.17;8.50;;;;;;;-3.10;68.47;99501.50;1733748;81;21161;-43
2021/01/15 01:41:08;;;;;;;16.90;9.67;;;;;;;-3.06;68.41;99506.64;1734737;81;21153;-44
2021/01/15 01:43:35;;;;;;;14.77;8.03;;;;;;;-3.03;68.36;99505.73;1740590;81;21189;-43
2021/01/15 01:46:06;;;;;;;16.63;10.00;;;;;;;-3.00;68.37;99505.66;1731739;81;21184;-43
2021/01/15 01:48:34;;;;;;;;;;;;;;;-2.98;68.44;99509.11;1741111;81;21157;-42
2021/01/15 01:51:02;;;;;;;19.17;10.37;;;;;;;-3.01;68.32;99510.48;1736296;81;20175;-43
2021/01/15 01:53:31;;;;;;;17.57;10.60;;;;;;;-3.05;68.20;99513.60;1728320;81;21137;-42
2021/01/15 01:56:03;;;;;;;16.30;10.67;;;;;;;-3.21;68.25;99511.29;1733961;81;21171;-43
2021/01/15 01:58:32;;;;;;;17.50;10.27;;;;;;;-3.31;68.57;99516.66;1702856;82;21302;-43
2021/01/15 02:01:02;;;;;;;17.00;9.80;;;;;;;-3.31;68.67;99520.56;1709785;82;21157;-45
2021/01/15 02:03:30;;;;;;;14.25;9.93;;;;;;;-3.33;68.84;99517.12;1707031;82;21191;-44
2021/01/15 02:05:58;;;;;;;16.23;9.87;;;;;;;-3.31;68.89;99521.02;1711399;82;21157;-44
2021/01/15 02:08:29;;;;;;;15.83;9.77;;;;;;;-3.29;68.87;99521.41;1702686;82;21173;-42
2021/01/15 02:11:20;;;;;;;18.02;9.75;;;;;;;-3.29;68.75;99520.55;1714784;82;21129;-42
2021/01/15 02:13:56;;;;;;;17.73;10.18;;;;;;;-3.30;68.58;99526.64;1729898;81;21165;-43
2021/01/15 02:16:28;;;;;;;16.37;11.50;;;;;;;-3.36;68.43;99525.00;1709840;81;21128;-43
2021/01/15 02:19:03;;;;;;;14.90;9.78;;;;;;;-3.45;68.42;99524.29;1707203;83;21149;-43
2021/01/15 02:22:09;;;;;;;18.67;10.80;;;;;;;-3.52;68.79;99527.02;1669004;84;21204;-44
2021/01/15 02:25:03;;;;;;;16.43;9.20;;;;;;;-3.51;69.59;99526.56;1800646;78;23086;-44
2021/01/15 02:28:16;;;;;;;15.90;10.53;;;;;;;-3.57;69.36;99539.70;1755889;80;21187;-43
2021/01/15 02:31:31;;;;;;;18.33;10.43;;;;;;;-3.61;69.52;99531.51;1688685;83;21282;-43
2021/01/15 02:34:47;;;;;;;14.73;10.10;;;;;;;-3.65;71.80;99525.50;1675266;83;21189;-44
2021/01/15 02:37:43;;;;;;;13.87;8.63;;;;;;;-3.74;73.45;99536.91;1678129;83;21218;-41
2021/01/15 02:40:19;;;;;;;12.60;8.57;;;;;;;-3.79;72.65;99532.20;1676101;83;22257;-43
2021/01/15 02:42:50;;;;;;;16.33;10.10;;;;;;;-3.76;73.13;99531.30;1659723;84;21164;-47
2021/01/15 02:45:18;;;;;;;16.37;9.47;;;;;;;-3.74;72.32;99531.69;1677506;83;21618;-47
2021/01/15 02:47:54;;;;;;;13.97;8.80;;;;;;;-3.72;72.59;99536.89;1801214;77;22655;-43
2021/01/15 02:50:24;;;;;;;14.93;8.27;;;;;;;-3.87;74.82;99537.98;1775577;78;21133;-43
2021/01/15 02:52:51;;;;;;;14.70;8.17;;;;;;;-3.93;74.66;99543.30;1771203;78;21134;-43
2021/01/15 02:55:19;;;;;;;13.40;7.80;;;;;;;-3.95;73.86;99544.61;1780134;78;21644;-43
2021/01/15 02:57:46;;;;;;;10.27;6.53;;;;;;;-3.97;73.56;99545.52;1719904;81;21150;-44
2021/01/15 03:00:17;;;;;;;12.80;7.30;;;;;;;-3.94;73.40;99551.53;1714930;82;21132;-44
2021/01/15 03:03:33;;;;;;;11.63;7.35;;;;;;;-3.90;72.61;99548.91;1720833;81;21159;-40
2021/01/15 03:06:07;;;;;;;12.10;7.60;;;;;;;-3.93;72.85;99549.81;1721167;81;21289;-40
2021/01/15 03:08:35;;;;;;;15.67;8.83;;;;;;;-3.98;72.50;99552.89;1721043;81;21625;-41
2021/01/15 03:11:03;;;;;;;12.80;8.20;;;;;;;-4.02;71.79;99561.20;1695829;82;21177;-41
2021/01/15 03:13:31;;;;;;;12.43;8.37;;;;;;;-4.06;71.14;99559.95;1693796;80;21118;-42
2021/01/15 03:16:01;;;;;;;14.43;8.30;;;;;;;-4.10;70.74;99558.30;1741388;80;21458;-41
2021/01/15 03:18:30;;;;;;;;;;;;;;;-4.15;70.16;99560.95;1720645;81;21826;-41
2021/01/15 03:21:01;;;;;;;11.57;7.10;;;;;;;-4.22;70.00;99564.52;1743613;80;20185;-41
2021/01/15 03:23:29;;;;;;;14.53;9.10;;;;;;;-4.29;70.15;99568.08;1691139;81;21173;-42
2021/01/15 03:25:57;;;;;;;13.60;8.00;;;;;;;-4.31;70.19;99565.48;1750480;80;21163;-42
2021/01/15 03:28:24;;;;;;;14.63;8.87;;;;;;;-4.33;70.15;99566.37;1727042;80;21166;-42
2021/01/15 03:30:52;;;;;;;17.63;8.63;;;;;;;-4.40;70.52;99561.27;1690764;83;21189;-41
2021/01/15 03:33:20;;;;;;;12.87;7.87;;;;;;;-4.47;70.23;99560.05;1708127;82;21150;-42
2021/01/15 03:35:48;;;;;;;10.87;7.40;;;;;;;-4.52;70.18;99569.21;1707976;82;21161;-41
2021/01/15 03:38:16;;;;;;;13.60;8.00;;;;;;;-4.52;70.27;99564.01;1711642;82;21161;-42
2021/01/15 03:40:45;;;;;;;14.37;8.30;;;;;;;-4.50;70.33;99571.36;1710100;82;21111;-43
2021/01/15 03:43:21;;;;;;;13.87;9.07;;;;;;;-4.45;70.31;99565.66;1708228;83;21600;-44
2021/01/15 03:45:50;;;;;;;13.13;7.73;;;;;;;-4.42;70.09;99563.46;1709143;82;21605;-43
2021/01/15 03:48:18;;;;;;;14.53;8.03;;;;;;;-4.45;70.21;99573.92;1695494;83;21645;-43
2021/01/15 03:50:46;;;;;;;12.87;7.93;;;;;;;-4.43;70.16;99578.67;1727790;81;21280;-42
2021/01/15 03:53:15;;;;;;;14.87;8.57;;;;;;;-4.43;70.05;99582.13;1737538;81;21146;-42
2021/01/15 03:55:43;;;;;;;11.00;7.43;;;;;;;-4.41;69.97;99580.80;1734577;81;21935;-41
2021/01/15 03:58:11;;;;;;;13.53;9.07;;;;;;;-4.38;69.86;99579.03;1732455;81;21148;-43
2021/01/15 04:00:39;;;;;;;17.57;10.03;;;;;;;-4.36;69.38;99575.98;1686499;83;21846;-42
2021/01/15 04:03:07;;;;;;;14.77;9.00;;;;;;;-4.40;69.23;99585.14;1690095;83;21138;-43
2021/01/15 04:05:34;;;;;;;13.97;8.97;;;;;;;-4.52;71.38;99586.58;1687218;83;21114;-44
2021/01/15 04:08:03;;;;;;;14.00;8.57;;;;;;;-4.62;70.43;99587.11;1736329;81;21130;-43
2021/01/15 04:10:31;;;;;;;13.77;8.03;;;;;;;-4.84;74.50;99592.56;1733197;81;21154;-43
2021/01/15 04:12:59;;;;;;;11.27;7.20;;;;;;;-5.04;75.33;99594.05;1732920;81;21130;-42
2021/01/15 04:15:26;;;;;;;14.60;6.73;;;;;;;-5.22;75.61;99592.48;1724863;81;21632;-45
2021/01/15 04:17:54;;;;;;;14.77;7.53;;;;;;;-5.31;76.06;99601.64;1724029;81;21166;-45
2021/01/15 04:20:22;;;;;;;12.10;7.00;;;;;;;-5.34;76.27;99600.38;1726968;81;21633;-43
2021/01/15 04:22:49;;;;;;;12.07;7.00;;;;;;;-5.35;76.42;99599.92;1709015;81;21133;-43
2021/01/15 04:25:17;;;;;;;13.60;8.50;;;;;;;-5.35;75.64;99612.07;1734793;81;21668;-42
2021/01/15 04:27:44;;;;;;;9.63;6.33;;;;;;;-5.44;76.33;99604.77;1738587;81;21182;-41
2021/01/15 04:30:13;;;;;;;11.43;6.50;;;;;;;-5.51;76.98;99601.79;1731316;81;21617;-45
2021/01/15 04:32:45;;;;;;;12.70;6.00;;;;;;;-5.52;76.51;99609.58;1734646;81;21305;-41
2021/01/15 04:35:16;;;;;;;9.77;6.00;;;;;;;-5.52;76.69;99615.67;1730519;81;21161;-43
2021/01/15 04:37:44;;;;;;;10.58;6.35;;;;;;;-5.48;76.28;99617.80;1735524;81;21128;-55
2021/01/15 04:40:12;;;;;;;12.30;6.87;;;;;;;-5.45;75.92;99619.92;1732782;81;21300;-44
2021/01/15 04:42:44;;;;;;;15.00;8.90;;;;;;;-5.42;75.85;99628.14;1733453;81;21571;-43
2021/01/15 04:45:15;;;;;;;14.83;8.73;;;;;;;-5.40;74.99;99630.73;1729756;81;21169;-42
2021/01/15 04:47:46;;;;;;;13.83;6.80;;;;;;;-5.41;73.84;99631.62;1737168;80;21146;-42
2021/01/15 04:50:15;;;;;;;10.73;5.40;;;;;;;-5.52;72.98;99639.06;1743948;80;21105;-41
2021/01/15 04:52:51;;;;;;;12.40;6.33;;;;;;;-5.68;74.87;99644.77;1744726;80;21146;-42
2021/01/15 04:55:25;;;;;;;11.37;6.00;;;;;;;-5.96;76.71;99646.69;1739839;81;21823;-42
2021/01/15 04:57:54;;;;;;;11.77;7.30;;;;;;;-6.23;76.25;99652.84;1735766;80;21155;-43
2021/01/15 05:00:25;;;;;;;12.37;6.67;;;;;;;-6.42;77.92;99659.84;1735524;80;21165;-43
2021/01/15 05:02:53;;;;;;;10.32;5.60;;;;;;;-6.54;77.82;99658.13;1743033;80;21149;-41
2021/01/15 05:05:25;;;;;;;12.50;5.83;;;;;;;-6.58;79.67;99662.88;1740267;80;21132;-42
2021/01/15 05:08:14;;;;;;;9.83;5.83;;;;;;;-6.61;77.03;99667.23;1739407;80;21134;-43
2021/01/15 05:10:44;;;;;;;9.77;5.47;;;;;;;-6.59;78.97;99673.28;1742684;80;21158;-45
2021/01/15 05:13:14;;;;;;;11.03;6.53;;;;;;;-6.60;79.32;99670.23;1741684;80;21134;-45
2021/01/15 05:15:44;;;;;;;;;;;;;;;-6.60;77.64;99682.80;1710649;82;21108;-42
2021/01/15 05:18:13;;;;;;;12.93;6.70;;;;;;;-6.63;77.51;99681.92;1665801;84;20190;-43
2021/01/15 05:20:40;;;;;;;14.47;7.03;;;;;;;-6.68;78.66;99681.92;1746467;80;21098;-44
2021/01/15 05:23:09;;;;;;;12.37;6.33;;;;;;;-6.67;79.38;99688.00;1736632;80;21587;-40
2021/01/15 05:25:44;;;;;;;13.87;6.67;;;;;;;-6.66;79.13;99686.69;1736028;81;21143;-46
2021/01/15 05:28:14;;;;;;;13.03;5.93;;;;;;;-6.64;79.30;99690.15;1744135;80;21753;-44
2021/01/15 05:30:42;;;;;;;13.03;6.80;;;;;;;-6.62;79.33;99692.75;1742472;80;21125;-43
2021/01/15 05:33:14;;;;;;;12.70;7.47;;;;;;;-6.60;79.20;99692.29;1744278;80;21154;-43
2021/01/15 05:35:46;;;;;;;12.07;7.03;;;;;;;-6.59;78.93;99697.49;1743131;80;21144;-44
2021/01/15 05:38:23;;;;;;;13.03;7.00;;;;;;;-6.60;78.71;99702.27;1744429;81;21126;-44
2021/01/15 05:40:56;;;;;;;11.53;6.33;;;;;;;-6.56;78.85;99703.97;1745695;80;21142;-42
2021/01/15 05:43:28;;;;;;;12.53;6.90;;;;;;;-6.55;78.61;99705.71;1740018;80;21150;-43
2021/01/15 05:46:16;;;;;;;17.00;7.35;;;;;;;-6.50;79.18;99703.52;1740208;80;21564;-45
2021/01/15 05:48:49;;;;;;;12.83;6.73;;;;;;;-6.46;79.09;99706.11;1742480;80;21153;-42
2021/01/15 05:51:36;;;;;;;9.60;6.43;;;;;;;-6.38;78.98;99704.36;1739117;80;21224;-43
2021/01/15 05:54:05;;;;;;;10.87;5.97;;;;;;;-6.34;78.66;99702.64;1740447;80;21581;-44
2021/01/15 05:56:45;;;;;;;12.30;6.77;;;;;;;-6.26;78.97;99709.11;1740989;81;21150;-41
2021/01/15 05:59:15;;;;;;;9.33;5.77;;;;;;;-6.22;78.12;99709.11;1706381;82;21570;-42
2021/01/15 06:01:56;;;;;;;10.85;6.33;;;;;;;-6.18;78.16;99709.50;1675671;83;21159;-44
2021/01/15 06:04:38;;;;;;;10.63;6.22;;;;;;;-6.15;77.13;99716.02;1740436;80;21146;-42
2021/01/15 06:07:14;;;;;;;14.10;7.17;;;;;;;-6.17;78.68;99713.85;1744939;80;21453;-42
2021/01/15 06:09:46;;;;;;;10.97;5.67;;;;;;;-6.17;77.96;99715.15;1744452;80;21147;-43
2021/01/15 06:12:18;;;;;;;9.60;6.23;;;;;;;-6.15;77.38;99724.20;1742322;80;21142;-42
2021/01/15 06:14:49;;;;;;;11.70;7.00;;;;;;;-6.18;78.58;99728.12;1737494;81;21134;-42
2021/01/15 06:17:19;;;;;;;10.23;6.50;;;;;;;-6.25;77.73;99737.64;1741673;80;21098;-48
2021/01/15 06:19:51;;;;;;;12.50;6.43;;;;;;;-6.26;77.52;99739.82;1743138;80;21109;-42
2021/01/15 06:22:51;;;;;;;10.30;6.33;;;;;;;-6.20;77.29;99742.83;1742060;81;21650;-42
2021/01/15 06:25:34;;;;;;;9.93;6.23;;;;;;;-6.23;77.23;99743.70;1741511;80;21142;-40
2021/01/15 06:28:09;;;;;;;9.63;5.67;;;;;;;-6.34;76.94;99755.84;1742761;81;21157;-43
2021/01/15 06:30:37;;;;;;;10.67;7.03;;;;;;;-6.46;77.64;99754.12;1741517;80;21149;-40
2021/01/15 06:33:10;;;;;;;17.70;10.00;;;;;;;-6.53;77.05;99761.47;1743032;80;21562;-43
2021/01/15 06:35:44;;;;;;;10.33;6.90;;;;;;;-6.55;76.39;99760.64;1740171;80;21138;-41
2021/01/15 06:38:16;;;;;;;13.57;6.53;;;;;;;-6.65;77.19;99764.96;1741330;80;21114;-41
2021/01/15 06:40:48;;;;;;;;;;;;;;;-6.71;78.93;99764.08;1747580;80;22156;-41
2021/01/15 06:43:29;;;;;;;12.15;6.55;;;;;;;-6.69;78.50;99771.44;1737913;80;20391;-43
2021/01/15 06:46:01;;;;;;;9.70;5.70;;;;;;;-6.65;78.91;99770.15;1734933;80;21154;-41
2021/01/15 06:48:37;;;;;;;9.90;6.03;;;;;;;-6.59;77.96;99777.92;1736452;80;22053;-43
2021/01/15 06:51:08;;;;;;;12.67;6.03;;;;;;;-6.54;76.78;99781.38;1742704;80;21154;-41
2021/01/15 06:53:43;;;;;;;13.33;7.27;;;;;;;-6.52;76.93;99783.12;1746274;80;21151;-42
2021/01/15 06:56:18;;;;;;;11.90;6.93;;;;;;;-6.48;76.03;99783.09;1746616;80;21151;-43
2021/01/15 06:58:46;;;;;;;11.37;6.63;;;;;;;-6.45;74.49;99785.72;1743903;80;21425;-44
2021/01/15 07:01:22;;;;;;;11.57;6.50;;;;;;;-6.45;74.88;99787.01;1743322;80;21138;-43
2021/01/15 07:04:26;;;;;;;10.93;6.70;;;;;;;-6.40;74.00;99793.06;1736937;80;21610;-43
2021/01/15 07:07:13;;;;;;;11.60;6.53;;;;;;;-6.35;73.79;99792.63;1708669;82;21150;-43
2021/01/15 07:09:46;;;;;;;12.53;6.73;;;;;;;-6.28;72.58;99795.20;1741485;80;21146;-41
2021/01/15 07:12:20;;;;;;;11.47;7.23;;;;;;;-6.28;71.68;99799.09;1741183;80;21169;-43
2021/01/15 07:15:01;;;;;;;10.30;6.20;;;;;;;-6.29;70.02;99799.97;1739352;80;21157;-41
2021/01/15 07:17:46;;;;;;;10.40;5.77;;;;;;;-6.29;71.20;99799.97;1677193;84;21142;-43
2021/01/15 07:20:17;;;;;;;12.37;6.67;;;;;;;-6.25;70.43;99808.17;1736778;80;21194;-44
2021/01/15 07:22:52;;;;;;;11.80;6.30;;;;;;;-6.23;69.13;99810.34;1740830;80;21169;-42
2021/01/15 07:25:21;;;;;;;11.30;5.77;;;;;;;-6.20;69.08;99815.52;1743426;80;21120;-41
2021/01/15 07:27:49;;;;;;;12.80;7.10;;;;;;;-6.19;69.18;99818.56;1739636;80;21187;-41
2021/01/15 07:30:28;;;;;;;11.63;6.70;;;;;;;-6.18;68.14;99817.25;1737315;80;21121;-42
2021/01/15 07:32:57;;;;;;;13.43;6.57;;;;;;;-6.22;68.39;99821.17;1743169;80;21133;-44
2021/01/15 07:35:26;;;;;;;12.60;7.00;;;;;;;-6.26;68.71;99824.63;1741918;80;21190;-43
2021/01/15 07:38:12;;;;;;;10.00;6.20;;;;;;;-6.25;68.30;99823.74;1709249;82;21155;-44
2021/01/15 07:40:41;;;;;;;13.03;7.00;;;;;;;-6.25;68.41;99831.53;1741517;80;21591;-43
2021/01/15 07:43:33;;;;;;;9.70;6.53;;;;;;;-6.28;68.22;99828.50;1738721;80;21284;-44
2021/01/15 07:46:03;;;;;;;13.73;7.53;;;;;;;-6.33;68.48;99828.94;1704237;82;21164;-47
2021/01/15 07:48:32;;;;;;;11.57;6.77;;;;;;;-6.36;69.96;99835.44;1685774;83;21190;-40
2021/01/15 07:51:02;;;;;;;14.23;7.10;;;;;;;-6.35;69.23;99839.34;1660337;83;21158;-39
2021/01/15 07:53:43;;;;;;;11.17;6.03;;;;;;;-6.33;69.23;99848.41;1697819;80;21139;-42
2021/01/15 07:56:11;;;;;;;13.63;7.57;;;;;;;-6.36;68.23;99851.01;1712745;82;21670;-41
2021/01/15 07:58:45;;;;;;;13.30;7.10;;;;;;;-6.40;68.67;99861.83;1751396;80;21117;-52
2021/01/15 08:01:16;;;;;;;11.63;6.80;;;;;;;-6.41;68.24;99864.41;1749547;80;21148;-42
2021/01/15 08:03:57;;;;;;;15.13;8.00;;;;;;;-6.47;68.87;99864.42;1748267;80;21682;-42
2021/01/15 08:06:27;;;;;;;10.33;6.00;;;;;;;-6.58;68.56;99869.14;1747734;80;21167;-40
2021/01/15 08:09:07;;;;;;;12.50;7.97;;;;;;;-6.59;69.41;99870.02;1747013;80;22366;-38
2021/01/15 08:11:36;;;;;;;15.47;7.20;;;;;;;-6.50;69.16;99870.88;1749080;80;21135;-39
2021/01/15 08:14:19;;;;;;;13.87;7.23;;;;;;;-6.44;67.87;99875.66;1750023;80;21124;-39
2021/01/15 08:16:49;;;;;;;15.87;7.73;;;;;;;-6.44;67.74;99874.36;1746841;80;21181;-42
2021/01/15 08:19:20;;;;;;;11.00;6.50;;;;;;;-6.43;67.65;99877.81;1747947;80;21307;-40
2021/01/15 08:21:50;;;;;;;11.83;7.37;;;;;;;-6.47;67.68;99876.96;1749542;80;21179;-42
2021/01/15 08:24:18;;;;;;;11.87;6.90;;;;;;;-6.44;67.32;99877.39;1749125;80;21136;-43
2021/01/15 08:26:55;;;;;;;16.27;7.70;;;;;;;-6.40;68.12;99881.70;1746350;80;21161;-40
2021/01/15 08:29:28;;;;;;;15.53;6.93;;;;;;;-6.46;67.66;99874.78;1747075;80;21173;-40
2021/01/15 08:31:58;;;;;;;14.70;7.30;;;;;;;-6.54;69.00;99880.41;1750140;80;21141;-39
2021/01/15 08:34:36;;;;;;;12.33;7.10;;;;;;;-6.57;67.05;99891.65;1709338;82;21184;-42
2021/01/15 08:37:10;;;;;;;12.83;6.40;;;;;;;-6.60;66.12;99892.95;1748129;80;21331;-39
2021/01/15 08:39:45;;;;;;;15.27;8.07;;;;;;;-6.58;65.87;99888.59;1746818;80;21162;-40
2021/01/15 08:42:14;;;;;;;10.87;6.40;;;;;;;-6.54;65.81;99886.89;1746031;80;21145;-41
2021/01/15 08:44:42;;;;;;;14.60;7.50;;;;;;;-6.46;65.98;99889.06;1750241;80;21130;-41
2021/01/15 08:47:12;;;;;;;12.23;7.03;;;;;;;-6.36;64.45;99889.94;1746159;80;21130;-42
2021/01/15 08:49:40;;;;;;;14.93;7.83;;;;;;;-6.38;64.30;99882.58;1745107;80;21470;-40
2021/01/15 08:52:08;;;;;;;13.50;7.70;;;;;;;-6.39;64.30;99886.91;1684824;82;21162;-41
2021/01/15 08:54:37;;;;;;;11.73;6.63;;;;;;;-6.40;63.87;99898.17;1719354;80;21584;-42
2021/01/15 08:57:05;;;;;;;13.20;7.47;;;;;;;-6.42;64.01;99889.95;1706170;82;21164;-42
2021/01/15 08:59:33;;;;;;;11.10;6.80;;;;;;;-6.40;63.32;99896.88;1707870;82;21149;-41
2021/01/15 09:02:05;;;;;;;13.90;7.27;;;;;;;-6.39;62.67;99897.73;1709600;82;21602;-40
2021/01/15 09:04:34;;;;;;;10.73;6.27;;;;;;;-6.48;62.82;99905.05;1709296;82;21607;-41
2021/01/15 09:07:06;;;;;;;11.07;5.80;;;;;;;-6.56;63.14;99906.78;1710530;82;21190;-41
2021/01/15 09:09:35;;;;;;;11.93;6.40;;;;;;;-6.55;63.00;99907.23;1708591;82;21166;-41
2021/01/15 09:12:05;;;;;;;11.47;6.30;;;;;;;-6.53;61.95;99901.59;1707985;82;21134;-41
2021/01/15 09:14:35;;;;;;;13.47;7.10;;;;;;;-6.59;61.73;99899.00;1705772;82;21182;-41
2021/01/15 09:17:07;;;;;;;13.37;7.63;;;;;;;-6.60;61.80;99914.11;1706191;82;21493;-40
2021/01/15 09:19:35;;;;;;;14.73;7.87;;;;;;;-6.66;62.03;99907.19;1706242;82;22081;-40
2021/01/15 09:22:07;;;;;;;19.80;10.37;;;;;;;-6.81;63.15;99917.53;1709661;82;21163;-42
2021/01/15 09:24:35;;;;;;;21.85;9.63;;;;;;;-7.01;62.67;99914.42;1709820;82;21123;-40
2021/01/15 09:27:05;;;;;;;30.70;12.33;;;;;;;-7.17;63.79;99919.56;1710170;82;21153;-39
2021/01/15 09:29:35;;;;;;;17.70;8.90;;;;;;;-7.33;64.36;99925.97;1709429;82;21157;-47
2021/01/15 09:32:03;;;;;;;16.70;7.67;;;;;;;-7.37;66.96;99926.80;1674111;84;21182;-42
2021/01/15 09:34:31;;;;;;;18.97;9.70;;;;;;;-7.36;67.22;99927.66;1669907;84;21566;-40
2021/01/15 09:36:59;;;;;;;17.07;9.27;;;;;;;-7.35;64.28;99928.98;1670254;84;21669;-42
2021/01/15 09:39:27;;;;;;;18.30;7.97;;;;;;;-7.42;62.36;99928.06;1668265;84;21185;-42
2021/01/15 09:41:57;;;;;;;26.63;11.73;;;;;;;-7.52;61.57;99928.02;1676280;84;21202;-40
2021/01/15 09:44:28;;;;;;;11.73;7.83;;;;;;;-7.63;62.10;99927.52;1709010;82;21158;-38
2021/01/15 09:47:01;;;;;;;16.57;7.97;;;;;;;-7.68;62.54;99931.80;1677357;84;21194;-41
2021/01/15 09:52:25;;;;;;;13.05;8.05;;;;;;;-7.68;65.45;99936.12;1777997;78;28654;-40
2021/01/15 09:54:53;;;;;;;14.83;7.13;;;;;;;-7.62;64.44;99935.72;1769500;79;21463;-40
2021/01/15 09:57:20;;;;;;;12.03;6.10;;;;;;;-7.43;64.39;99941.03;1764817;79;21153;-40
2021/01/15 09:59:50;;;;;;;16.13;7.53;;;;;;;-7.30;64.13;99941.97;1738738;81;22019;-40
2021/01/15 10:02:17;;;;;;;11.40;6.60;;;;;;;-7.22;62.97;99936.39;1721838;81;21168;-41
2021/01/15 10:04:45;;;;;;;12.10;6.83;;;;;;;-7.15;63.12;99930.81;1717550;81;21194;-40
2021/01/15 10:07:13;;;;;;;10.77;7.07;;;;;;;-7.05;62.48;99929.55;1714982;81;21135;-38
2021/01/15 10:09:40;;;;;;;15.50;7.63;;;;;;;-7.03;62.31;99935.62;1739806;81;21409;-39
2021/01/15 10:12:12;;;;;;;11.43;5.93;;;;;;;-7.01;61.77;99932.58;1742382;81;21433;-41
2021/01/15 10:14:39;;;;;;;11.53;7.10;;;;;;;-6.97;61.76;99933.47;1733736;81;21154;-43
2021/01/15 10:17:07;;;;;;;13.17;7.10;;;;;;;-6.93;61.48;99935.63;1698391;83;21162;-40
2021/01/15 10:19:36;;;;;;;14.83;7.27;;;;;;;-6.89;61.20;99933.50;1701588;82;21684;-40
2021/01/15 10:22:03;;;;;;;14.57;7.70;;;;;;;-6.86;60.55;99933.06;1717983;82;21161;-41
2021/01/15 10:24:31;;;;;;;10.13;6.60;;;;;;;-6.92;61.87;99933.50;1708100;82;21180;-41
2021/01/15 10:26:59;;;;;;;12.10;7.80;;;;;;;-6.96;61.18;99932.16;1709413;82;21185;-39
2021/01/15 10:29:27;;;;;;;14.33;8.20;;;;;;;-6.92;61.09;99940.84;1698768;81;21751;-38
2021/01/15 10:31:55;;;;;;;14.30;7.07;;;;;;;-6.88;61.57;99933.52;1691520;82;21596;-40
2021/01/15 10:34:24;;;;;;;10.70;6.70;;;;;;;-6.82;62.54;99928.77;1710047;82;21157;-40
2021/01/15 10:36:52;;;;;;;13.63;6.80;;;;;;;-6.75;62.19;99922.75;1676425;83;21764;-42
2021/01/15 10:39:21;;;;;;;11.47;6.27;;;;;;;-6.67;62.18;99922.77;1702066;81;21225;-41
2021/01/15 10:41:51;;;;;;;12.60;6.80;;;;;;;-6.56;61.88;99923.64;1718957;81;21982;-40
2021/01/15 10:44:21;;;;;;;14.10;7.80;;;;;;;-6.44;61.18;99926.70;1685947;83;21142;-40
2021/01/15 10:46:52;;;;;;;13.53;8.00;;;;;;;-6.45;60.44;99934.03;1669886;84;21162;-42
2021/01/15 10:49:22;;;;;;;16.65;7.08;;;;;;;-6.61;59.62;99932.70;1672551;83;21692;-41
2021/01/15 10:51:52;;;;;;;11.47;7.60;;;;;;;-6.79;59.87;99940.01;1674057;84;21200;-42
2021/01/15 10:54:19;;;;;;;12.50;6.53;;;;;;;-6.92;59.81;99932.20;1691492;83;21153;-39
2021/01/15 10:56:51;;;;;;;12.70;6.70;;;;;;;-7.01;64.21;99934.30;1690618;82;21625;-40
2021/01/15 10:59:20;;;;;;;9.13;5.67;;;;;;;-6.99;66.62;99932.59;1687000;83;21197;-40
2021/01/15 11:01:49;;;;;;;13.40;6.63;;;;;;;-6.85;64.69;99932.66;1685553;82;21171;-42
2021/01/15 11:04:18;;;;;;;12.27;5.73;;;;;;;-6.67;63.79;99930.55;1681460;82;21963;-39
2021/01/15 11:06:53;;;;;;;9.55;5.80;;;;;;;-6.53;60.39;99931.42;1682987;83;21189;-41
2021/01/15 11:09:23;;;;;;;11.27;6.37;;;;;;;-6.51;59.37;99933.59;1681243;83;21696;-39
2021/01/15 11:11:52;;;;;;;9.73;5.13;;;;;;;-6.57;59.28;99935.76;1682843;83;21173;-39
2021/01/15 11:14:20;;;;;;;12.67;5.90;;;;;;;-6.65;59.59;99933.98;1671262;83;21823;-41
2021/01/15 11:16:48;;;;;;;12.97;6.87;;;;;;;-6.70;62.25;99938.30;1666325;83;21438;-58
2021/01/15 11:19:15;;;;;;;11.57;6.30;;;;;;;-6.77;62.50;99943.92;1670176;83;21640;-38
2021/01/15 11:21:43;;;;;;;12.30;6.97;;;;;;;-6.78;60.87;99939.57;1676362;83;21192;-39
2021/01/15 11:24:11;;;;;;;10.90;7.03;;;;;;;-6.81;58.88;99943.02;1674831;83;21193;-50
2021/01/15 11:26:39;;;;;;;11.27;6.47;;;;;;;-6.91;57.62;99946.88;1674239;83;21167;-39
2021/01/15 11:29:09;;;;;;;11.87;6.33;;;;;;;-6.97;58.58;99943.41;1680796;83;21202;-40
2021/01/15 11:31:41;;;;;;;12.17;7.07;;;;;;;-6.92;58.47;99946.02;1681289;83;21169;-39
2021/01/15 11:34:09;;;;;;;13.20;5.80;;;;;;;-6.87;58.74;99943.02;1683640;83;21184;-39
2021/01/15 11:36:37;;;;;;;10.90;6.23;;;;;;;-6.74;59.21;99949.11;1695246;82;21696;-40
2021/01/15 11:39:08;;;;;;;9.67;5.80;;;;;;;-6.63;58.10;99945.23;1701475;83;21184;-39
2021/01/15 11:41:35;;;;;;;14.83;6.75;;;;;;;-6.57;57.26;99950.47;1687014;83;21505;-40
2021/01/15 11:44:10;;;;;;;9.93;6.33;;;;;;;-6.58;56.58;99937.04;1684390;83;21581;-39
2021/01/15 11:46:39;;;;;;;9.73;5.60;;;;;;;-6.63;57.39;99934.86;1685629;83;21687;-41
2021/01/15 11:49:09;;;;;;;10.20;5.58;;;;;;;-6.65;57.42;99936.58;1689227;82;21633;-39
2021/01/15 11:51:36;;;;;;;10.83;6.50;;;;;;;-6.57;57.94;99936.20;1678434;83;21136;-39